createdAt,value
2018-02-27T00:02:03.113Z,58.39
2018-02-27T00:04:31.432Z,58.50
2018-02-27T00:06:59.784Z,58.47
2018-02-27T00:09:28.149Z,58.32
2018-02-27T00:11:56.465Z,58.17
2018-02-27T00:14:24.810Z,58.45
2018-02-27T00:16:53.199Z,58.53
2018-02-27T00:19:21.533Z,58.73
2018-02-27T00:21:50.604Z,58.82
2018-02-27T00:24:18.952Z,58.73
2018-02-27T00:26:47.275Z,58.08
2018-02-27T00:29:15.624Z,57.83
2018-02-27T00:31:43.929Z,57.33
2018-02-27T00:34:12.238Z,57.49
2018-02-27T00:36:41.349Z,57.66
2018-02-27T00:39:10.443Z,57.51
2018-02-27T00:41:38.854Z,57.30
2018-02-27T00:44:07.185Z,57.55
2018-02-27T00:46:35.533Z,57.74
2018-02-27T00:49:04.111Z,57.46
2018-02-27T00:51:32.457Z,57.39
2018-02-27T00:54:00.846Z,57.85
2018-02-27T00:56:29.154Z,57.79
2018-02-27T00:58:57.471Z,57.39
2018-02-27T01:01:25.807Z,57.27
2018-02-27T01:03:54.126Z,57.26
2018-02-27T01:06:22.459Z,57.41
2018-02-27T01:08:50.770Z,57.63
2018-02-27T01:11:19.885Z,58.02
2018-02-27T01:13:48.199Z,58.54
2018-02-27T01:16:17.322Z,58.64
2018-02-27T01:18:45.647Z,58.72
2018-02-27T01:21:13.988Z,58.99
2018-02-27T01:23:42.319Z,59.18
2018-02-27T01:26:11.410Z,59.35
2018-02-27T01:28:39.732Z,59.19
2018-02-27T01:31:08.065Z,58.94
2018-02-27T01:33:36.406Z,59.07
2018-02-27T01:36:04.731Z,59.24
2018-02-27T01:38:33.062Z,59.27
2018-02-27T01:41:01.419Z,59.23
2018-02-27T01:43:29.732Z,58.59
2018-02-27T01:45:58.046Z,58.63
2018-02-27T01:48:26.372Z,58.87
2018-02-27T01:51:12.377Z,59.01
2018-02-27T01:53:40.708Z,59.27
2018-02-27T01:56:09.854Z,58.99
2018-02-27T01:58:38.192Z,58.93
2018-02-27T02:01:07.304Z,59.28
2018-02-27T02:03:36.415Z,59.45
2018-02-27T02:06:04.762Z,59.62
2018-02-27T02:08:33.090Z,59.63
2018-02-27T02:11:01.410Z,59.37
2018-02-27T02:13:29.756Z,59.84
2018-02-27T02:15:58.072Z,59.77
2018-02-27T02:18:26.441Z,59.58
2018-02-27T02:20:54.774Z,59.75
2018-02-27T02:23:23.100Z,59.64
2018-02-27T02:25:51.422Z,59.53
2018-02-27T02:28:20.586Z,59.79
2018-02-27T02:30:48.920Z,60.16
2018-02-27T02:33:17.243Z,60.30
2018-02-27T02:35:45.563Z,60.17
2018-02-27T02:38:14.673Z,60.33
2018-02-27T02:40:43.011Z,60.23
2018-02-27T02:43:11.335Z,60.42
2018-02-27T02:45:39.641Z,60.59
2018-02-27T02:48:07.986Z,60.80
2018-02-27T02:50:37.064Z,60.79
2018-02-27T02:53:05.376Z,60.77
2018-02-27T02:55:33.705Z,60.85
2018-02-27T02:58:02.079Z,61.00
2018-02-27T03:00:30.416Z,61.15
2018-02-27T03:02:58.760Z,61.11
2018-02-27T03:05:27.076Z,61.05
2018-02-27T03:07:55.494Z,61.33
2018-02-27T03:10:23.828Z,61.44
2018-02-27T03:12:52.958Z,61.47
2018-02-27T03:15:21.284Z,61.30
2018-02-27T03:17:49.710Z,61.47
2018-02-27T03:20:18.033Z,61.69
2018-02-27T03:22:46.400Z,61.73
2018-02-27T03:25:14.807Z,61.54
2018-02-27T03:27:43.178Z,61.61
2018-02-27T03:30:11.623Z,61.39
2018-02-27T03:32:40.008Z,61.48
2018-02-27T03:35:08.404Z,61.39
2018-02-27T03:37:36.774Z,61.40
2018-02-27T03:40:05.146Z,61.39
2018-02-27T03:42:33.548Z,61.40
2018-02-27T03:45:01.928Z,61.41
2018-02-27T03:47:30.514Z,61.38
2018-02-27T03:49:58.869Z,61.34
2018-02-27T03:52:27.223Z,61.52
2018-02-27T03:54:55.566Z,61.81
2018-02-27T03:57:23.906Z,61.83
2018-02-27T03:59:52.983Z,62.38
2018-02-27T04:02:21.300Z,62.68
2018-02-27T04:04:49.684Z,62.84
2018-02-27T04:07:18.026Z,63.09
2018-02-27T04:09:46.397Z,63.42
2018-02-27T04:12:14.710Z,63.88
2018-02-27T04:14:43.019Z,63.92
2018-02-27T04:17:11.364Z,64.28
2018-02-27T04:19:40.472Z,64.46
2018-02-27T04:22:09.804Z,64.75
2018-02-27T04:24:38.114Z,64.59
2018-02-27T04:27:07.210Z,65.01
2018-02-27T04:29:35.540Z,65.41
2018-02-27T04:32:03.873Z,65.58
2018-02-27T04:34:32.179Z,65.90
2018-02-27T04:37:01.260Z,66.07
2018-02-27T04:39:29.576Z,66.19
2018-02-27T04:41:57.897Z,66.26
2018-02-27T04:44:26.220Z,66.51
2018-02-27T04:46:55.311Z,66.81
2018-02-27T04:49:24.400Z,66.74
2018-02-27T04:51:52.712Z,67.10
2018-02-27T04:54:21.802Z,67.12
2018-02-27T04:56:50.904Z,67.35
2018-02-27T04:59:19.229Z,67.69
2018-02-27T05:01:47.544Z,67.83
2018-02-27T05:04:15.868Z,67.88
2018-02-27T05:06:44.208Z,68.15
2018-02-27T05:09:13.295Z,68.65
2018-02-27T05:11:41.642Z,68.61
2018-02-27T05:14:10.552Z,68.97
2018-02-27T05:16:38.873Z,69.15
2018-02-27T05:19:07.950Z,69.22
2018-02-27T05:21:36.278Z,69.07
2018-02-27T05:24:04.610Z,69.15
2018-02-27T05:26:32.930Z,69.14
2018-02-27T05:29:01.244Z,69.21
2018-02-27T05:31:29.544Z,69.48
2018-02-27T05:33:57.864Z,69.35
2018-02-27T05:36:26.173Z,69.49
2018-02-27T05:38:54.547Z,69.58
2018-02-27T05:41:22.863Z,69.47
2018-02-27T05:43:51.783Z,69.62
2018-02-27T05:46:20.852Z,69.69
2018-02-27T05:48:49.185Z,69.75
2018-02-27T05:51:17.518Z,69.54
2018-02-27T05:53:45.846Z,69.72
2018-02-27T05:56:14.180Z,69.78
2018-02-27T05:58:42.510Z,70.01
2018-02-27T06:01:10.832Z,69.82
2018-02-27T06:03:39.169Z,70.20
2018-02-27T06:06:07.496Z,70.17
2018-02-27T06:08:35.820Z,70.47
2018-02-27T06:11:04.906Z,70.21
2018-02-27T06:13:34.024Z,70.50
2018-02-27T06:16:02.344Z,70.21
2018-02-27T06:18:30.657Z,70.41
2018-02-27T06:20:58.976Z,70.45
2018-02-27T06:23:27.289Z,70.37
2018-02-27T06:25:55.612Z,70.68
2018-02-27T06:28:24.705Z,70.70
2018-02-27T06:30:53.813Z,70.14
2018-02-27T06:33:22.952Z,69.21
2018-02-27T06:35:51.268Z,69.28
2018-02-27T06:38:19.596Z,69.93
2018-02-27T06:40:47.982Z,70.06
2018-02-27T06:43:16.290Z,70.15
2018-02-27T06:45:44.639Z,70.43
2018-02-27T06:48:12.954Z,70.53
2018-02-27T06:50:43.546Z,70.82
2018-02-27T06:53:11.916Z,70.92
2018-02-27T06:55:41.071Z,70.66
2018-02-27T06:58:09.402Z,70.70
2018-02-27T07:00:38.524Z,71.03
2018-02-27T07:03:07.633Z,70.81
2018-02-27T07:05:35.959Z,71.00
2018-02-27T07:08:05.065Z,70.59
2018-02-27T07:10:33.395Z,70.38
2018-02-27T07:13:01.802Z,70.50
2018-02-27T07:15:30.916Z,70.24
2018-02-27T07:18:00.023Z,70.19
2018-02-27T07:20:29.090Z,70.18
2018-02-27T07:22:58.516Z,70.03
2018-02-27T07:25:27.344Z,69.92
2018-02-27T07:27:55.670Z,69.72
2018-02-27T07:30:24.038Z,69.59
2018-02-27T07:32:52.366Z,69.22
2018-02-27T07:35:20.745Z,68.99
2018-02-27T07:37:49.838Z,68.79
2018-02-27T07:40:18.184Z,68.83
2018-02-27T07:42:46.495Z,68.84
2018-02-27T07:45:15.594Z,68.73
2018-02-27T07:47:44.032Z,68.25
2018-02-27T07:50:12.483Z,68.28
2018-02-27T07:52:40.876Z,68.08
2018-02-27T07:55:09.194Z,68.02
2018-02-27T07:57:37.517Z,67.85
2018-02-27T08:00:06.686Z,67.78
2018-02-27T08:02:36.020Z,67.62
2018-02-27T08:05:04.379Z,67.31
2018-02-27T08:07:32.708Z,67.22
2018-02-27T08:10:01.865Z,66.78
2018-02-27T08:12:30.954Z,66.37
2018-02-27T08:14:59.286Z,65.87
2018-02-27T08:17:27.672Z,65.39
2018-02-27T08:19:55.994Z,64.68
2018-02-27T08:22:25.089Z,63.87
2018-02-27T08:24:53.386Z,63.13
2018-02-27T08:27:22.490Z,61.69
2018-02-27T08:29:51.560Z,59.54
2018-02-27T08:32:19.922Z,58.98
2018-02-27T08:34:48.232Z,59.61
2018-02-27T08:37:17.310Z,58.98
2018-02-27T08:39:45.618Z,57.81
2018-02-27T08:42:14.686Z,57.48
2018-02-27T08:44:43.008Z,57.10
2018-02-27T08:47:11.346Z,56.39
2018-02-27T08:49:39.703Z,55.87
2018-02-27T08:52:08.032Z,55.06
2018-02-27T08:54:37.180Z,53.85
2018-02-27T08:57:05.534Z,52.81
2018-02-27T08:59:33.856Z,51.56
2018-02-27T09:02:03.116Z,50.12
2018-02-27T09:04:32.187Z,50.42
2018-02-27T09:07:01.330Z,49.98
2018-02-27T09:09:29.696Z,49.95
2018-02-27T09:11:58.787Z,50.29
2018-02-27T09:14:27.113Z,50.15
2018-02-27T09:16:55.632Z,50.06
2018-02-27T09:19:25.349Z,49.95
2018-02-27T09:21:53.712Z,49.92
2018-02-27T09:24:22.033Z,49.54
2018-02-27T09:26:51.133Z,48.88
2018-02-27T09:29:19.446Z,47.23
2018-02-27T09:31:47.747Z,47.67
2018-02-27T09:34:16.054Z,47.32
2018-02-27T09:36:45.191Z,47.47
2018-02-27T09:39:13.526Z,47.32
2018-02-27T09:41:41.870Z,46.93
2018-02-27T09:44:10.158Z,46.29
2018-02-27T09:46:39.231Z,45.75
2018-02-27T09:49:07.525Z,45.29
2018-02-27T09:51:35.825Z,45.03
2018-02-27T09:54:04.648Z,44.33
2018-02-27T09:56:33.969Z,43.54
2018-02-27T09:59:02.272Z,42.58
2018-02-27T10:01:30.635Z,41.82
2018-02-27T10:03:58.928Z,40.62
2018-02-27T10:06:28.129Z,41.16
2018-02-27T10:08:56.458Z,41.65
2018-02-27T10:11:25.549Z,42.46
2018-02-27T10:13:54.205Z,42.94
2018-02-27T10:16:22.523Z,42.64
2018-02-27T10:18:50.817Z,42.63
2018-02-27T10:21:19.157Z,42.33
2018-02-27T10:23:48.253Z,42.87
2018-02-27T10:26:16.568Z,43.56
2018-02-27T10:28:45.676Z,44.11
2018-02-27T10:31:14.753Z,44.12
2018-02-27T10:33:43.085Z,43.84
2018-02-27T10:36:11.391Z,43.58
2018-02-27T10:38:39.702Z,43.54
2018-02-27T10:41:08.019Z,43.04
2018-02-27T10:43:36.333Z,42.20
2018-02-27T10:46:04.627Z,41.32
2018-02-27T10:48:32.927Z,40.72
2018-02-27T10:51:02.013Z,39.84
2018-02-27T10:53:30.322Z,38.75
2018-02-27T10:55:59.416Z,38.22
2018-02-27T10:58:28.483Z,37.69
2018-02-27T11:00:57.848Z,36.74
2018-02-27T11:03:26.181Z,34.77
2018-02-27T11:05:54.504Z,35.66
2018-02-27T11:08:22.811Z,35.63
2018-02-27T11:10:51.112Z,35.97
2018-02-27T11:13:19.424Z,35.78
2018-02-27T11:15:48.509Z,35.73
2018-02-27T11:18:17.613Z,34.80
2018-02-27T11:20:46.694Z,35.10
2018-02-27T11:23:15.050Z,35.00
2018-02-27T11:25:43.347Z,34.27
2018-02-27T11:28:11.645Z,34.56
2018-02-27T11:30:40.731Z,35.67
2018-02-27T11:33:09.029Z,35.65
2018-02-27T11:35:38.164Z,35.57
2018-02-27T11:38:06.454Z,35.58
2018-02-27T11:40:34.759Z,35.12
2018-02-27T11:43:03.151Z,35.12
2018-02-27T11:45:31.452Z,35.19
2018-02-27T11:48:00.524Z,35.45
2018-02-27T11:50:28.826Z,36.09
2018-02-27T11:52:57.185Z,36.24
2018-02-27T11:55:25.481Z,36.50
2018-02-27T11:57:53.803Z,37.02
2018-02-27T12:00:22.135Z,35.88
2018-02-27T12:02:50.485Z,35.41
2018-02-27T12:05:18.779Z,35.20
2018-02-27T12:07:47.069Z,35.12
2018-02-27T12:10:15.411Z,35.22
2018-02-27T12:12:43.710Z,35.03
2018-02-27T12:15:12.011Z,34.63
2018-02-27T12:17:40.307Z,34.04
2018-02-27T12:20:08.623Z,35.05
2018-02-27T12:22:36.917Z,34.81
2018-02-27T12:25:05.299Z,34.43
2018-02-27T12:27:33.620Z,34.23
2018-02-27T12:30:01.933Z,34.00
2018-02-27T12:32:30.952Z,33.15
2018-02-27T12:34:59.257Z,33.57
2018-02-27T12:37:27.607Z,32.93
2018-02-27T12:39:55.965Z,32.81
2018-02-27T12:42:25.065Z,32.77
2018-02-27T12:44:53.377Z,31.99
2018-02-27T12:47:22.564Z,30.15
2018-02-27T12:49:50.884Z,29.97
2018-02-27T12:52:19.196Z,29.71
2018-02-27T12:54:48.295Z,28.09
2018-02-27T12:57:17.576Z,28.34
2018-02-27T12:59:45.879Z,27.67
2018-02-27T13:02:14.955Z,26.42
2018-02-27T13:04:43.289Z,26.11
2018-02-27T13:07:11.607Z,25.23
2018-02-27T13:09:39.923Z,24.46
2018-02-27T13:12:09.002Z,23.29
2018-02-27T13:14:38.102Z,23.22
2018-02-27T13:17:06.439Z,22.98
2018-02-27T13:19:34.749Z,22.13
2018-02-27T13:22:03.080Z,22.08
2018-02-27T13:24:31.400Z,21.56
2018-02-27T13:26:59.719Z,21.39
2018-02-27T13:29:28.805Z,22.26
2018-02-27T13:31:57.896Z,22.55
2018-02-27T13:34:26.212Z,22.71
2018-02-27T13:36:54.621Z,22.76
2018-02-27T13:39:22.944Z,22.21
2018-02-27T13:41:51.276Z,21.32
2018-02-27T13:44:19.757Z,21.06
2018-02-27T13:46:48.073Z,20.49
2018-02-27T13:49:16.369Z,20.09
2018-02-27T13:51:44.679Z,19.70
2018-02-27T13:54:13.077Z,19.56
2018-02-27T13:56:41.385Z,19.42
2018-02-27T13:59:09.697Z,19.41
2018-02-27T14:01:38.127Z,19.10
2018-02-27T14:04:06.442Z,18.58
2018-02-27T14:06:34.755Z,18.43
2018-02-27T14:09:03.865Z,17.99
2018-02-27T14:11:32.177Z,17.66
2018-02-27T14:14:00.571Z,17.56
2018-02-27T14:16:29.021Z,17.57
2018-02-27T14:18:57.333Z,17.74
2018-02-27T14:21:25.663Z,17.38
2018-02-27T14:23:53.987Z,16.95
2018-02-27T14:26:22.327Z,17.53
2018-02-27T14:28:51.413Z,17.88
2018-02-27T14:31:20.493Z,17.98
2018-02-27T14:33:49.581Z,17.75
2018-02-27T14:36:17.875Z,17.96
2018-02-27T14:38:46.313Z,17.79
2018-02-27T14:41:14.623Z,17.69
2018-02-27T14:43:42.963Z,17.25
2018-02-27T14:46:11.269Z,17.70
2018-02-27T14:48:39.571Z,17.47
2018-02-27T14:51:07.893Z,17.59
2018-02-27T14:53:36.213Z,17.28
2018-02-27T14:56:04.581Z,17.45
2018-02-27T14:58:32.904Z,17.49
2018-02-27T15:01:01.242Z,17.44
2018-02-27T15:03:29.553Z,17.11
2018-02-27T15:05:57.911Z,16.89
2018-02-27T15:08:26.263Z,16.88
2018-02-27T15:10:54.598Z,16.38
2018-02-27T15:13:22.929Z,17.43
2018-02-27T15:15:51.287Z,18.43
2018-02-27T15:18:20.381Z,18.54
2018-02-27T15:20:49.454Z,18.96
2018-02-27T15:23:17.776Z,19.39
2018-02-27T15:25:46.126Z,19.88
2018-02-27T15:28:14.443Z,21.37
2018-02-27T15:30:42.749Z,22.53
2018-02-27T15:33:11.121Z,23.45
2018-02-27T15:35:39.456Z,23.59
2018-02-27T15:38:10.532Z,24.83
2018-02-27T15:40:38.977Z,25.51
2018-02-27T15:43:07.363Z,25.67
2018-02-27T15:45:35.689Z,24.60
2018-02-27T15:48:04.044Z,23.98
2018-02-27T15:50:33.248Z,24.15
2018-02-27T15:53:02.333Z,24.48
2018-02-27T15:55:31.465Z,25.28
2018-02-27T15:57:59.862Z,25.66
2018-02-27T16:00:28.163Z,25.98
2018-02-27T16:02:56.479Z,26.09
2018-02-27T16:05:25.589Z,25.92
2018-02-27T16:07:54.711Z,26.39
2018-02-27T16:10:23.104Z,26.48
2018-02-27T16:12:51.436Z,26.43
2018-02-27T16:15:20.540Z,26.62
2018-02-27T16:17:49.652Z,26.77
2018-02-27T16:20:18.349Z,27.59
2018-02-27T16:22:46.682Z,28.21
2018-02-27T16:25:14.993Z,28.53
2018-02-27T16:27:44.221Z,29.04
2018-02-27T16:30:13.253Z,29.43
2018-02-27T16:32:41.561Z,30.17
2018-02-27T16:35:10.635Z,31.70
2018-02-27T16:37:39.059Z,33.09
2018-02-27T16:40:08.266Z,34.02
2018-02-27T16:42:36.598Z,35.31
2018-02-27T16:45:04.930Z,36.32
2018-02-27T16:47:33.345Z,37.07
2018-02-27T16:50:01.637Z,37.94
2018-02-27T16:52:29.951Z,39.25
2018-02-27T16:54:59.024Z,40.52
2018-02-27T16:57:28.307Z,41.99
2018-02-27T16:59:56.912Z,43.39
2018-02-27T17:02:26.046Z,45.43
2018-02-27T17:04:54.372Z,45.76
2018-02-27T17:07:22.687Z,46.70
2018-02-27T17:09:51.765Z,48.27
2018-02-27T17:12:20.111Z,51.02
2018-02-27T17:14:49.164Z,49.81
2018-02-27T17:17:18.277Z,51.16
2018-02-27T17:19:46.589Z,52.62
2018-02-27T17:22:14.913Z,53.13
2018-02-27T17:24:43.269Z,56.51
2018-02-27T17:27:11.586Z,57.17
2018-02-27T17:29:40.728Z,56.82
2018-02-27T17:32:09.106Z,58.60
2018-02-27T17:34:37.415Z,59.20
2018-02-27T17:37:05.755Z,59.04
2018-02-27T17:39:34.081Z,59.15
2018-02-27T17:42:02.403Z,60.08
2018-02-27T17:44:30.739Z,60.26
2018-02-27T17:46:59.069Z,60.40
2018-02-27T17:49:27.413Z,60.85
2018-02-27T17:51:55.750Z,60.69
2018-02-27T17:54:24.848Z,60.33
2018-02-27T17:56:53.187Z,60.12
2018-02-27T17:59:22.321Z,61.07
2018-02-27T18:01:50.650Z,61.43
2018-02-27T18:04:19.021Z,61.75
2018-02-27T18:06:47.385Z,62.36
2018-02-27T18:09:15.738Z,62.41
2018-02-27T18:11:44.053Z,62.29
2018-02-27T18:14:12.389Z,63.68
2018-02-27T18:16:40.729Z,63.13
2018-02-27T18:19:09.045Z,63.15
2018-02-27T18:21:38.138Z,63.61
2018-02-27T18:24:06.457Z,63.66
2018-02-27T18:26:34.945Z,63.96
2018-02-27T18:29:03.282Z,64.35
2018-02-27T18:31:32.393Z,64.11
2018-02-27T18:34:00.721Z,64.71
2018-02-27T18:36:29.872Z,64.95
2018-02-27T18:38:58.187Z,65.10
2018-02-27T18:41:26.512Z,65.00
2018-02-27T18:43:54.907Z,65.27
2018-02-27T18:46:23.196Z,65.16
2018-02-27T18:48:51.517Z,65.29
2018-02-27T18:51:19.879Z,64.91
2018-02-27T18:53:48.251Z,64.99
2018-02-27T18:56:16.602Z,65.17
2018-02-27T18:58:45.715Z,65.30
2018-02-27T19:01:14.814Z,65.50
2018-02-27T19:03:43.903Z,65.48
2018-02-27T19:06:13.006Z,65.35
2018-02-27T19:08:42.094Z,65.25
2018-02-27T19:11:11.206Z,65.23
2018-02-27T19:13:39.516Z,65.31
2018-02-27T19:16:08.046Z,65.51
2018-02-27T19:18:36.350Z,65.51
2018-02-27T19:21:05.423Z,65.45
2018-02-27T19:23:33.766Z,65.70
2018-02-27T19:26:02.106Z,65.81
2018-02-27T19:28:31.204Z,65.79
2018-02-27T19:30:59.513Z,65.96
2018-02-27T19:33:27.855Z,65.94
2018-02-27T19:35:56.983Z,66.43
2018-02-27T19:38:25.293Z,66.69
2018-02-27T19:40:53.606Z,66.73
2018-02-27T19:43:21.933Z,66.74
2018-02-27T19:45:50.321Z,66.87
2018-02-27T19:48:18.839Z,67.01
2018-02-27T19:50:47.470Z,67.25
2018-02-27T19:53:15.858Z,67.47
2018-02-27T19:55:44.333Z,67.33
2018-02-27T19:58:13.447Z,67.50
2018-02-27T20:00:42.525Z,67.67
2018-02-27T20:03:11.726Z,67.75
2018-02-27T20:05:41.497Z,67.82
2018-02-27T20:08:09.845Z,68.09
2018-02-27T20:10:38.187Z,68.02
2018-02-27T20:13:06.624Z,68.36
2018-02-27T20:15:34.934Z,68.45
2018-02-27T20:18:08.835Z,68.87
2018-02-27T20:20:37.214Z,68.84
2018-02-27T20:23:11.114Z,69.00
2018-02-27T20:25:39.443Z,69.11
2018-02-27T20:31:12.844Z,69.67
2018-02-27T20:33:41.180Z,69.73
2018-02-27T20:36:09.526Z,69.92
2018-02-27T20:38:43.361Z,70.35
2018-02-27T20:41:11.681Z,70.31
2018-02-27T20:43:40.043Z,70.42
2018-02-27T20:46:09.167Z,70.45
2018-02-27T20:48:38.265Z,70.53
2018-02-27T20:51:06.576Z,70.89
2018-02-27T20:53:34.955Z,70.75
2018-02-27T20:56:03.274Z,71.15
2018-02-27T20:58:31.592Z,71.29
2018-02-27T21:00:59.943Z,71.42
2018-02-27T21:03:28.274Z,71.52
2018-02-27T21:05:56.597Z,71.21
2018-02-27T21:08:24.935Z,71.55
2018-02-27T21:10:53.260Z,71.47
2018-02-27T21:13:21.601Z,71.29
2018-02-27T21:15:49.924Z,71.46
2018-02-27T21:18:18.272Z,71.53
2018-02-27T21:20:46.618Z,71.40
2018-02-27T21:23:15.700Z,71.40
2018-02-27T21:25:44.018Z,71.38
2018-02-27T21:28:12.352Z,71.23
2018-02-27T21:30:40.672Z,71.40
2018-02-27T21:33:09.000Z,71.65
2018-02-27T21:35:37.353Z,71.33
2018-02-27T21:38:05.662Z,71.24
2018-02-27T21:40:33.989Z,71.78
2018-02-27T21:43:02.310Z,71.65
2018-02-27T21:48:05.842Z,71.33
2018-02-27T21:50:34.249Z,71.08
2018-02-27T21:53:03.360Z,71.18
2018-02-27T21:55:31.735Z,71.11
2018-02-27T21:58:00.038Z,71.29
2018-02-27T22:00:29.752Z,71.18
2018-02-27T22:02:58.239Z,71.14
2018-02-27T22:05:26.567Z,71.04
2018-02-27T22:07:54.946Z,71.09
2018-02-27T22:10:23.268Z,71.14
2018-02-27T22:12:51.603Z,71.08
2018-02-27T22:15:19.944Z,71.05
2018-02-27T22:17:48.264Z,71.10
2018-02-27T22:20:16.607Z,70.90
2018-02-27T22:22:44.921Z,70.89
2018-02-27T22:25:13.404Z,71.04
2018-02-27T22:27:41.702Z,71.11
2018-02-27T22:30:10.054Z,71.12
2018-02-27T22:32:38.350Z,71.15
2018-02-27T22:35:06.682Z,71.11
2018-02-27T22:37:35.010Z,71.15
2018-02-27T22:40:03.733Z,71.13
2018-02-27T22:42:32.816Z,71.12
2018-02-27T22:45:01.188Z,70.95
2018-02-27T22:47:29.519Z,71.08
2018-02-27T22:49:57.914Z,71.27
2018-02-27T22:52:26.306Z,71.29
2018-02-27T22:54:54.634Z,71.21
2018-02-27T22:57:22.970Z,71.59
2018-02-27T22:59:51.286Z,71.68
2018-02-27T23:02:20.370Z,71.57
2018-02-27T23:04:48.707Z,71.78
2018-02-27T23:07:17.020Z,71.99
2018-02-27T23:09:45.338Z,72.26
2018-02-27T23:12:15.310Z,72.32
2018-02-27T23:14:43.647Z,72.22
2018-02-27T23:17:15.345Z,72.18
2018-02-27T23:19:43.659Z,71.42
2018-02-27T23:22:11.978Z,71.20
2018-02-27T23:24:42.505Z,71.04
2018-02-27T23:27:11.832Z,71.47
2018-02-27T23:29:40.321Z,71.48
2018-02-27T23:32:09.560Z,71.42
2018-02-27T23:34:42.430Z,71.75
2018-02-27T23:37:10.762Z,72.13
2018-02-27T23:39:39.088Z,72.02
2018-02-27T23:42:07.393Z,72.33
2018-02-27T23:44:35.733Z,72.36
2018-02-27T23:47:04.070Z,72.15
2018-02-27T23:49:32.408Z,72.20
2018-02-27T23:52:00.743Z,72.24
2018-02-27T23:54:29.048Z,72.31
2018-02-27T23:56:57.362Z,72.32
2018-02-27T23:59:25.733Z,72.36
